createdAt,value
2022-08-03T00:02:33.091Z,100138.66
2022-08-03T00:05:37.090Z,100141.03
2022-08-03T00:08:40.376Z,100134.28
2022-08-03T00:11:43.454Z,100135.91
2022-08-03T00:14:46.147Z,100131.97
2022-08-03T00:17:53.029Z,100143.19
2022-08-03T00:20:56.725Z,100133.88
2022-08-03T00:23:59.706Z,100131.69
2022-08-03T00:27:02.525Z,100135.78
2022-08-03T00:30:06.184Z,100137.41
2022-08-03T00:33:10.384Z,100141.28
2022-08-03T00:36:13.629Z,100144.00
2022-08-03T00:39:16.231Z,100140.94
2022-08-03T00:42:19.216Z,100155.72
2022-08-03T00:45:24.813Z,100144.00
2022-08-03T00:48:32.834Z,100151.38
2022-08-03T00:51:36.430Z,100148.56
2022-08-03T00:54:40.120Z,100147.84
2022-08-03T00:57:43.647Z,100151.34
2022-08-03T01:00:47.023Z,100157.28
2022-08-03T01:03:49.598Z,100150.72
2022-08-03T01:07:40.330Z,100162.78
2022-08-03T01:10:57.340Z,100167.84
2022-08-03T01:14:18.279Z,100163.78
2022-08-03T01:17:29.204Z,100175.91
2022-08-03T01:20:35.576Z,100180.34
2022-08-03T01:23:53.376Z,100172.94
2022-08-03T01:27:06.302Z,100174.06
2022-08-03T01:30:12.359Z,100173.84
2022-08-03T01:33:26.466Z,100173.22
2022-08-03T01:36:36.457Z,100174.28
2022-08-03T01:39:42.245Z,100175.53
2022-08-03T01:42:46.534Z,100177.75
2022-08-03T01:45:51.307Z,100171.72
2022-08-03T01:48:56.398Z,100176.84
2022-08-03T01:52:04.520Z,100178.12
2022-08-03T01:55:10.021Z,100173.22
2022-08-03T01:58:19.953Z,100168.59
2022-08-03T02:01:24.519Z,100162.00
2022-08-03T02:04:28.774Z,100155.81
2022-08-03T02:07:33.430Z,100166.25
2022-08-03T02:10:38.034Z,100166.16
2022-08-03T02:13:42.147Z,100164.16
2022-08-03T02:16:46.138Z,100159.06
2022-08-03T02:19:51.789Z,100159.50
2022-08-03T02:22:55.402Z,100156.38
2022-08-03T02:26:02.490Z,100150.69
2022-08-03T02:29:13.805Z,100157.34
2022-08-03T02:32:24.243Z,100160.62
2022-08-03T02:35:29.760Z,100163.22
2022-08-03T02:38:36.095Z,100163.06
2022-08-03T02:41:46.515Z,100169.50
2022-08-03T02:44:54.212Z,100157.38
2022-08-03T02:48:02.117Z,100159.19
2022-08-03T02:51:05.755Z,100167.22
2022-08-03T02:54:10.221Z,100165.50
2022-08-03T02:57:15.067Z,100164.97
2022-08-03T03:00:27.253Z,100172.16
2022-08-03T03:03:40.000Z,100168.50
2022-08-03T03:06:49.599Z,100170.25
2022-08-03T03:09:53.484Z,100174.09
2022-08-03T03:12:58.173Z,100169.31
2022-08-03T03:16:03.297Z,100163.34
2022-08-03T03:19:08.046Z,100169.91
2022-08-03T03:22:11.151Z,100164.66
2022-08-03T03:25:14.392Z,100168.78
2022-08-03T03:28:17.509Z,100163.56
2022-08-03T03:31:20.515Z,100168.34
2022-08-03T03:34:24.145Z,100164.16
2022-08-03T03:37:27.439Z,100171.03
2022-08-03T03:40:31.165Z,100173.91
2022-08-03T03:43:34.170Z,100181.12
2022-08-03T03:46:39.033Z,100173.78
2022-08-03T03:49:42.971Z,100174.09
2022-08-03T03:52:46.387Z,100177.31
2022-08-03T03:55:59.388Z,100178.88
2022-08-03T03:59:05.678Z,100178.50
2022-08-03T04:02:10.461Z,100176.13
2022-08-03T04:05:33.614Z,100181.31
2022-08-03T04:08:55.047Z,100192.47
2022-08-03T04:12:01.854Z,100192.59
2022-08-03T04:15:05.921Z,100194.25
2022-08-03T04:18:13.951Z,100196.81
2022-08-03T04:21:19.890Z,100206.00
2022-08-03T04:24:26.898Z,100199.34
2022-08-03T04:27:35.083Z,100202.75
2022-08-03T04:30:40.249Z,100204.53
2022-08-03T04:33:45.301Z,100207.47
2022-08-03T04:36:52.957Z,100206.25
2022-08-03T04:39:58.675Z,100212.78
2022-08-03T04:43:03.017Z,100214.59
2022-08-03T04:46:07.404Z,100216.78
2022-08-03T04:49:10.482Z,100219.44
2022-08-03T04:52:14.523Z,100214.59
2022-08-03T04:55:30.515Z,100226.19
2022-08-03T04:58:33.598Z,100230.34
2022-08-03T05:01:36.732Z,100233.63
2022-08-03T05:04:41.616Z,100232.69
2022-08-03T05:07:44.880Z,100228.06
2022-08-03T05:10:48.030Z,100238.09
2022-08-03T05:13:51.021Z,100237.53
2022-08-03T05:16:53.548Z,100234.41
2022-08-03T05:19:56.948Z,100241.91
2022-08-03T05:23:01.618Z,100255.19
2022-08-03T05:26:04.980Z,100247.28
2022-08-03T05:29:08.322Z,100251.66
2022-08-03T05:32:11.221Z,100258.69
2022-08-03T05:36:02.769Z,100254.84
2022-08-03T05:38:37.206Z,100262.09
2022-08-03T05:41:40.385Z,100261.75
2022-08-03T05:44:46.670Z,100267.19
2022-08-03T05:47:50.972Z,100271.16
2022-08-03T05:50:54.948Z,100271.72
2022-08-03T05:53:57.947Z,100271.03
2022-08-03T05:57:01.089Z,100271.56
2022-08-03T06:00:09.931Z,100267.50
2022-08-03T06:03:14.526Z,100281.37
2022-08-03T06:06:17.696Z,100284.87
2022-08-03T06:09:20.723Z,100279.94
2022-08-03T06:12:23.600Z,100282.00
2022-08-03T06:15:26.211Z,100288.25
2022-08-03T06:18:29.121Z,100289.28
2022-08-03T06:21:31.716Z,100287.75
2022-08-03T06:24:34.756Z,100301.22
2022-08-03T06:27:40.145Z,100295.94
2022-08-03T06:30:43.212Z,100292.34
2022-08-03T06:34:30.401Z,100296.53
2022-08-03T06:37:08.717Z,100294.28
2022-08-03T06:40:16.453Z,100296.00
2022-08-03T06:43:27.520Z,100293.88
2022-08-03T06:46:30.241Z,100302.41
2022-08-03T06:49:33.130Z,100295.66
2022-08-03T06:52:37.576Z,100303.31
2022-08-03T06:55:42.537Z,100295.75
2022-08-03T06:58:47.046Z,100304.19
2022-08-03T07:01:50.580Z,100309.88
2022-08-03T07:04:53.277Z,100305.31
2022-08-03T07:07:57.746Z,100309.38
2022-08-03T07:11:00.432Z,100310.44
2022-08-03T07:14:04.344Z,100315.50
2022-08-03T07:17:11.609Z,100314.50
2022-08-03T07:20:15.342Z,100313.12
2022-08-03T07:23:18.864Z,100319.06
2022-08-03T07:26:22.206Z,100310.22
2022-08-03T07:29:25.106Z,100317.66
2022-08-03T07:32:31.713Z,100311.28
2022-08-03T07:35:34.464Z,100305.84
2022-08-03T07:38:37.738Z,100301.31
2022-08-03T07:41:41.384Z,100304.97
2022-08-03T07:44:44.776Z,100304.63
2022-08-03T07:47:53.733Z,100309.50
2022-08-03T07:50:57.230Z,100302.47
2022-08-03T07:54:00.974Z,100299.16
2022-08-03T07:57:04.207Z,100303.03
2022-08-03T08:00:14.055Z,100292.28
2022-08-03T08:03:17.622Z,100296.56
2022-08-03T08:06:20.868Z,100300.31
2022-08-03T08:09:23.873Z,100296.53
2022-08-03T08:12:26.534Z,100301.53
2022-08-03T08:15:29.613Z,100301.09
2022-08-03T08:18:32.647Z,100301.91
2022-08-03T08:21:53.025Z,100299.25
2022-08-03T08:25:04.388Z,100303.25
2022-08-03T08:28:30.807Z,100288.97
2022-08-03T08:31:30.318Z,100301.13
2022-08-03T08:34:33.268Z,100304.16
2022-08-03T08:37:36.462Z,100297.13
2022-08-03T08:40:40.506Z,100298.88
2022-08-03T08:43:43.783Z,100298.31
2022-08-03T08:46:48.128Z,100299.53
2022-08-03T08:50:09.333Z,100285.88
2022-08-03T08:53:18.330Z,100286.06
2022-08-03T08:56:25.678Z,100291.91
2022-08-03T08:59:48.373Z,100287.94
2022-08-03T09:02:53.465Z,100281.88
2022-08-03T09:05:56.705Z,100285.44
2022-08-03T09:08:59.535Z,100286.53
2022-08-03T09:12:35.081Z,100279.88
2022-08-03T09:15:31.422Z,100275.84
2022-08-03T09:18:34.350Z,100273.84
2022-08-03T09:21:36.878Z,100270.38
2022-08-03T09:25:22.786Z,100285.72
2022-08-03T09:29:01.491Z,100272.78
2022-08-03T09:31:46.989Z,100273.66
2022-08-03T09:34:56.574Z,100276.94
2022-08-03T09:38:14.330Z,100269.94
2022-08-03T09:41:20.119Z,100265.84
2022-08-03T09:44:34.395Z,100267.87
2022-08-03T09:47:37.418Z,100262.72
2022-08-03T09:51:12.898Z,100261.66
2022-08-03T09:54:30.047Z,100257.47
2022-08-03T09:57:33.170Z,100253.66
2022-08-03T10:00:54.144Z,100254.63
2022-08-03T10:04:04.483Z,100252.28
2022-08-03T10:07:11.313Z,100240.13
2022-08-03T10:10:30.821Z,100241.53
2022-08-03T10:13:36.269Z,100237.97
2022-08-03T10:16:40.582Z,100236.00
2022-08-03T10:19:43.471Z,100235.59
2022-08-03T10:22:47.803Z,100239.66
2022-08-03T10:25:56.372Z,100239.25
2022-08-03T10:29:02.975Z,100229.19
2022-08-03T10:32:19.148Z,100224.88
2022-08-03T10:35:23.831Z,100220.91
2022-08-03T10:38:35.096Z,100220.97
2022-08-03T10:41:40.892Z,100219.75
2022-08-03T10:44:43.631Z,100227.78
2022-08-03T10:47:48.369Z,100208.53
2022-08-03T10:50:52.257Z,100208.50
2022-08-03T10:53:55.850Z,100210.81
2022-08-03T10:57:17.370Z,100208.28
2022-08-03T11:00:24.060Z,100205.88
2022-08-03T11:03:33.275Z,100195.09
2022-08-03T11:06:37.427Z,100193.69
2022-08-03T11:09:44.760Z,100194.06
2022-08-03T11:12:48.214Z,100182.87
2022-08-03T11:15:53.569Z,100189.53
2022-08-03T11:19:08.841Z,100186.34
2022-08-03T11:22:11.921Z,100179.81
2022-08-03T11:25:54.182Z,100184.38
2022-08-03T11:28:44.819Z,100172.91
2022-08-03T11:31:50.223Z,100175.06
2022-08-03T11:35:10.393Z,100167.06
2022-08-03T11:38:13.496Z,100167.06
2022-08-03T11:41:44.799Z,100170.34
2022-08-03T11:44:54.292Z,100171.00
2022-08-03T11:48:00.787Z,100153.34
2022-08-03T11:51:18.650Z,100156.75
2022-08-03T11:54:22.802Z,100155.91
2022-08-03T11:59:17.367Z,100148.78
2022-08-03T12:01:07.783Z,100151.31
2022-08-03T12:04:14.210Z,100144.59
2022-08-03T12:08:02.407Z,100148.91
2022-08-03T12:10:48.373Z,100151.03
2022-08-03T12:14:43.924Z,100142.13
2022-08-03T12:17:16.912Z,100137.62
2022-08-03T12:20:34.430Z,100136.88
2022-08-03T12:23:39.958Z,100137.97
2022-08-03T12:26:58.408Z,100134.66
2022-08-03T12:30:03.442Z,100133.34
2022-08-03T12:33:14.305Z,100128.91
2022-08-03T12:36:17.306Z,100116.38
2022-08-03T12:39:24.720Z,100115.81
2022-08-03T12:42:35.319Z,100108.22
2022-08-03T12:45:38.271Z,100114.63
2022-08-03T12:49:01.911Z,100107.69
2022-08-03T12:52:07.636Z,100108.94
2022-08-03T12:55:20.909Z,100106.16
2022-08-03T12:58:39.678Z,100102.13
2022-08-03T13:01:54.800Z,100098.78
2022-08-03T13:04:59.426Z,100095.84
2022-08-03T13:08:02.569Z,100087.13
2022-08-03T13:11:55.629Z,100087.94
2022-08-03T13:14:57.414Z,100086.84
2022-08-03T13:18:00.124Z,100087.91
2022-08-03T13:21:03.748Z,100086.91
2022-08-03T13:24:06.885Z,100084.34
2022-08-03T13:28:02.335Z,100074.63
2022-08-03T13:30:37.673Z,100072.41
2022-08-03T13:33:41.035Z,100071.03
2022-08-03T13:37:07.963Z,100076.97
2022-08-03T13:40:08.511Z,100063.63
2022-08-03T13:43:14.567Z,100063.75
2022-08-03T13:46:17.978Z,100063.25
2022-08-03T13:49:20.611Z,100058.28
2022-08-03T13:52:27.247Z,100061.91
2022-08-03T13:55:30.079Z,100053.63
2022-08-03T13:58:33.771Z,100056.75
2022-08-03T14:01:54.143Z,100051.19
2022-08-03T14:04:58.014Z,100051.72
2022-08-03T14:08:05.367Z,100050.16
2022-08-03T14:11:08.801Z,100040.63
2022-08-03T14:14:15.133Z,100042.28
2022-08-03T14:17:18.409Z,100046.03
2022-08-03T14:20:36.598Z,100036.25
2022-08-03T14:23:42.612Z,100038.66
2022-08-03T14:26:47.405Z,100026.81
2022-08-03T14:29:51.448Z,100028.97
2022-08-03T14:32:56.873Z,100024.19
2022-08-03T14:36:03.659Z,100023.50
2022-08-03T14:39:09.452Z,100017.72
2022-08-03T14:42:12.489Z,100019.87
2022-08-03T14:45:20.528Z,100017.41
2022-08-03T14:50:32.311Z,100019.56
2022-08-03T14:51:53.617Z,100011.84
2022-08-03T14:54:57.486Z,100013.09
2022-08-03T14:58:02.939Z,100004.56
2022-08-03T15:02:04.438Z,100007.66
2022-08-03T15:04:34.889Z,100007.66
2022-08-03T15:07:40.547Z,100007.25
2022-08-03T15:10:45.300Z,100002.44
2022-08-03T15:13:52.387Z,100008.25
2022-08-03T15:16:54.987Z,100011.78
2022-08-03T15:20:00.984Z,99999.78
2022-08-03T15:23:08.647Z,99995.38
2022-08-03T15:26:33.875Z,99996.91
2022-08-03T15:30:06.832Z,100000.28
2022-08-03T15:32:59.502Z,100001.88
2022-08-03T15:36:02.239Z,99991.25
2022-08-03T15:39:06.377Z,99993.97
2022-08-03T15:42:09.505Z,99995.03
2022-08-03T15:45:12.855Z,99988.97
2022-08-03T15:48:18.183Z,99995.22
2022-08-03T15:51:21.438Z,99999.72
2022-08-03T15:54:24.651Z,99997.50
2022-08-03T15:57:27.985Z,99989.62
2022-08-03T16:00:33.285Z,99988.59
2022-08-03T16:03:37.734Z,99982.78
2022-08-03T16:06:40.961Z,99986.63
2022-08-03T16:09:44.384Z,99992.44
2022-08-03T16:12:48.161Z,99981.16
2022-08-03T16:15:52.056Z,99983.53
2022-08-03T16:18:54.837Z,99976.94
2022-08-03T16:21:57.924Z,99978.09
2022-08-03T16:25:01.704Z,99974.16
2022-08-03T16:28:13.185Z,99977.78
2022-08-03T16:31:16.770Z,99985.78
2022-08-03T16:34:21.106Z,99980.16
2022-08-03T16:37:38.057Z,99979.09
2022-08-03T16:40:42.541Z,99975.22
2022-08-03T16:43:45.385Z,99972.91
2022-08-03T16:46:48.226Z,99977.13
2022-08-03T16:49:52.851Z,99970.59
2022-08-03T16:53:09.344Z,99976.22
2022-08-03T16:56:12.639Z,99971.25
2022-08-03T16:59:15.490Z,99969.34
2022-08-03T17:02:26.154Z,99979.28
2022-08-03T17:05:43.824Z,99973.22
2022-08-03T17:08:55.217Z,99977.94
2022-08-03T17:11:58.433Z,99982.72
2022-08-03T17:15:05.066Z,99983.38
2022-08-03T17:18:17.977Z,99982.78
2022-08-03T17:21:34.702Z,99987.56
2022-08-03T17:24:42.235Z,99991.06
2022-08-03T17:28:48.394Z,100005.38
2022-08-03T17:31:23.467Z,100001.41
2022-08-03T17:34:34.277Z,99999.56
2022-08-03T17:37:57.762Z,99997.69
2022-08-03T17:41:01.382Z,100004.94
2022-08-03T17:44:34.649Z,100007.00
2022-08-03T17:47:41.490Z,100004.88
2022-08-03T17:51:11.491Z,100015.12
2022-08-03T17:55:56.494Z,100010.25
2022-08-03T17:58:28.141Z,100012.41
2022-08-03T18:02:29.927Z,100013.84
2022-08-03T18:06:11.085Z,100015.44
2022-08-03T18:12:28.231Z,100022.47
2022-08-03T18:15:49.491Z,100024.00
2022-08-03T18:18:57.350Z,100035.88
2022-08-03T18:22:04.338Z,100028.69
2022-08-03T18:25:08.941Z,100029.91
2022-08-03T18:28:18.703Z,100031.69
2022-08-03T18:31:59.668Z,100030.97
2022-08-03T18:34:53.573Z,100034.41
2022-08-03T18:37:59.054Z,100032.41
2022-08-03T18:41:13.241Z,100045.97
2022-08-03T18:44:53.577Z,100043.87
2022-08-03T18:47:52.496Z,100051.75
2022-08-03T18:51:09.733Z,100055.41
2022-08-03T18:54:51.027Z,100051.66
2022-08-03T18:57:59.643Z,100051.19
2022-08-03T19:01:59.160Z,100056.97
2022-08-03T19:04:52.731Z,100055.06
2022-08-03T19:07:59.984Z,100055.09
2022-08-03T19:11:07.859Z,100063.44
2022-08-03T19:14:14.270Z,100066.47
2022-08-03T19:17:21.653Z,100058.34
2022-08-03T19:20:31.393Z,100068.25
2022-08-03T19:23:38.567Z,100070.25
2022-08-03T19:26:48.578Z,100076.50
2022-08-03T19:30:03.964Z,100079.78
2022-08-03T19:33:19.121Z,100078.09
2022-08-03T19:36:26.422Z,100080.47
2022-08-03T19:39:31.872Z,100078.44
2022-08-03T19:42:40.904Z,100073.22
2022-08-03T19:46:06.310Z,100075.03
2022-08-03T19:49:16.245Z,100070.16
2022-08-03T19:52:24.152Z,100078.59
2022-08-03T19:55:34.191Z,100083.41
2022-08-03T19:58:37.418Z,100079.94
2022-08-03T20:01:50.598Z,100079.72
2022-08-03T20:04:55.910Z,100080.66
2022-08-03T20:08:05.367Z,100094.06
2022-08-03T20:11:10.557Z,100087.66
2022-08-03T20:14:20.823Z,100088.66
2022-08-03T20:17:54.555Z,100085.53
2022-08-03T20:20:54.545Z,100097.06
2022-08-03T20:24:24.488Z,100095.19
2022-08-03T20:27:35.157Z,100087.66
2022-08-03T20:30:59.937Z,100096.44
2022-08-03T20:34:03.175Z,100101.03
2022-08-03T20:37:09.600Z,100096.03
2022-08-03T20:40:15.117Z,100095.56
2022-08-03T20:43:19.855Z,100096.22
2022-08-03T20:46:31.963Z,100093.69
2022-08-03T20:49:45.929Z,100101.81
2022-08-03T20:52:49.411Z,100102.03
2022-08-03T20:56:02.109Z,100102.09
2022-08-03T20:59:07.239Z,100099.31
2022-08-03T21:02:29.925Z,100102.31
2022-08-03T21:05:51.567Z,100089.44
2022-08-03T21:09:04.234Z,100099.69
2022-08-03T21:12:12.077Z,100099.09
2022-08-03T21:13:05.867Z,100015.62
2022-08-03T21:16:02.368Z,100098.69
2022-08-03T21:18:47.187Z,100096.66
2022-08-03T21:21:52.158Z,100100.84
2022-08-03T21:24:57.695Z,100101.72
2022-08-03T21:28:01.769Z,100098.37
2022-08-03T21:31:04.882Z,100105.91
2022-08-03T21:34:08.423Z,100112.56
2022-08-03T21:37:14.422Z,100114.81
2022-08-03T21:40:19.054Z,100125.03
2022-08-03T21:43:21.987Z,100121.31
2022-08-03T21:46:26.815Z,100118.63
2022-08-03T21:50:04.247Z,100125.50
2022-08-03T21:52:59.034Z,100116.56
2022-08-03T21:56:08.514Z,100123.25
2022-08-03T21:59:18.112Z,100124.69
2022-08-03T22:02:27.216Z,100126.34
2022-08-03T22:05:43.687Z,100126.56
2022-08-03T22:08:48.843Z,100131.34
2022-08-03T22:11:54.265Z,100130.72
2022-08-03T22:15:00.520Z,100127.22
2022-08-03T22:18:05.204Z,100129.94
2022-08-03T22:21:11.756Z,100139.44
2022-08-03T22:24:18.434Z,100141.75
2022-08-03T22:27:34.165Z,100143.81
2022-08-03T22:30:38.053Z,100143.62
2022-08-03T22:33:42.220Z,100141.31
2022-08-03T22:36:45.254Z,100141.13
2022-08-03T22:39:47.905Z,100135.72
2022-08-03T22:42:55.023Z,100136.09
2022-08-03T22:46:09.864Z,100139.03
2022-08-03T22:49:16.748Z,100137.56
2022-08-03T22:52:20.281Z,100142.34
2022-08-03T22:55:25.096Z,100148.13
2022-08-03T22:58:27.964Z,100148.53
2022-08-03T23:01:37.250Z,100149.94
2022-08-03T23:04:42.292Z,100146.59
2022-08-03T23:07:45.768Z,100150.34
2022-08-03T23:10:50.196Z,100152.41
2022-08-03T23:13:56.635Z,100154.47
2022-08-03T23:17:04.333Z,100156.94
2022-08-03T23:20:09.663Z,100146.50
2022-08-03T23:23:12.835Z,100151.69
2022-08-03T23:26:20.194Z,100163.19
2022-08-03T23:29:24.006Z,100167.69
2022-08-03T23:32:29.190Z,100169.19
2022-08-03T23:36:29.638Z,100163.63
2022-08-03T23:39:16.384Z,100167.16
2022-08-03T23:42:21.123Z,100176.50
2022-08-03T23:45:27.617Z,100169.72
2022-08-03T23:48:30.925Z,100165.03
2022-08-03T23:51:53.471Z,100166.81
2022-08-03T23:55:20.702Z,100160.53
2022-08-03T23:58:58.129Z,100154.69
